Time;durP1;ratioP1;P1;durP2;ratioP2;P2;SDS_P1;SDS_P2;PMS_P1;PMS_P2;Temp;Humidity;BMP_temperature;BMP_pressure;BME280_temperature;BME280_humidity;BME280_pressure;Samples;Min_cycle;Max_cycle;Signal;HPM_P1;HPM_P2
2024/01/02 00:00:35;;;;;;;2.27;1.50;;;;;;;4.01;100.00;96279.41;5084604;28;20199;-56
2024/01/02 00:03:02;;;;;;;1.77;1.17;;;;;;;4.05;100.00;96279.19;5083588;28;20225;-56
2024/01/02 00:05:28;;;;;;;1.67;1.40;;;;;;;3.91;100.00;96273.19;5083733;28;20202;-56
2024/01/02 00:07:55;;;;;;;2.20;1.07;;;;;;;3.97;100.00;96275.34;5084278;28;20226;-55
2024/01/02 00:10:22;;;;;;;2.00;1.20;;;;;;;4.08;100.00;96271.94;5084119;28;20222;-56
2024/01/02 00:12:50;;;;;;;1.43;1.20;;;;;;;4.02;100.00;96275.03;5083460;28;20268;-56
2024/01/02 00:15:16;;;;;;;1.77;1.33;;;;;;;4.08;100.00;96260.63;5083610;28;20206;-54
2024/01/02 00:17:43;;;;;;;1.30;1.20;;;;;;;4.10;100.00;96266.63;5084152;28;20217;-56
2024/01/02 00:20:13;;;;;;;2.53;1.20;;;;;;;4.22;100.00;96263.06;5083287;28;20663;-56
2024/01/02 00:22:40;;;;;;;1.80;1.43;;;;;;;4.23;100.00;96252.50;5082201;28;20221;-56
2024/01/02 00:25:10;;;;;;;3.87;1.50;;;;;;;4.46;100.00;96258.66;5083478;28;20210;-55
2024/01/02 00:27:37;;;;;;;3.30;1.60;;;;;;;4.51;100.00;96246.88;5085037;28;20528;-55
2024/01/02 00:30:07;;;;;;;2.77;1.27;;;;;;;4.54;100.00;96245.78;5082754;28;20240;-53
2024/01/02 00:32:34;;;;;;;2.17;1.83;;;;;;;4.53;100.00;96236.28;5082356;28;20214;-55
2024/01/02 00:35:00;;;;;;;1.50;1.33;;;;;;;4.69;100.00;96221.06;5082195;28;20217;-55
2024/01/02 00:37:27;;;;;;;1.50;1.40;;;;;;;4.77;100.00;96210.84;5082535;28;20339;-55
2024/01/02 00:39:54;;;;;;;1.20;1.13;;;;;;;4.85;100.00;96215.50;5082389;28;20206;-55
2024/01/02 00:42:20;;;;;;;2.80;1.73;;;;;;;4.96;100.00;96205.84;5083297;28;20530;-54
2024/01/02 00:44:47;;;;;;;3.23;1.53;;;;;;;5.05;100.00;96208.69;5088696;28;20265;-56
2024/01/02 00:47:15;;;;;;;1.77;1.67;;;;;;;5.13;100.00;96206.31;5086650;28;20229;-54
2024/01/02 00:49:41;;;;;;;3.70;1.30;;;;;;;5.24;100.00;96206.31;5084452;28;20218;-55
2024/01/02 00:52:08;;;;;;;2.03;1.20;;;;;;;5.16;100.00;96188.56;5083394;28;20198;-56
2024/01/02 00:54:35;;;;;;;2.90;1.33;;;;;;;5.20;100.00;96179.50;5082586;28;20216;-56
2024/01/02 00:57:02;;;;;;;2.53;1.43;;;;;;;5.20;100.00;96178.66;5082848;28;20203;-54
2024/01/02 00:59:32;;;;;;;2.47;1.40;;;;;;;5.21;100.00;96180.34;5081564;28;20365;-56
2024/01/02 01:01:58;;;;;;;1.80;1.67;;;;;;;5.21;100.00;96180.34;5080379;28;20880;-56
2024/01/02 01:04:27;;;;;;;1.40;1.20;;;;;;;5.25;100.00;96181.75;5081286;28;20515;-56
2024/01/02 01:06:54;;;;;;;1.27;1.17;;;;;;;5.29;100.00;96177.94;5081519;28;20549;-54
2024/01/02 01:09:20;;;;;;;1.60;1.27;;;;;;;5.31;100.00;96165.53;5082554;28;20206;-56
2024/01/02 01:11:47;;;;;;;2.70;1.23;;;;;;;5.36;100.00;96168.63;5081455;28;20216;-56
2024/01/02 01:14:13;;;;;;;1.10;1.00;;;;;;;5.47;100.00;96161.56;5082042;28;20203;-56
2024/01/02 01:16:40;;;;;;;1.07;1.00;;;;;;;5.44;99.04;96153.09;5081618;28;20557;-57
2024/01/02 01:19:07;;;;;;;1.57;1.27;;;;;;;5.43;100.00;96148.81;5082356;28;20214;-55
2024/01/02 01:21:35;;;;;;;3.80;1.43;;;;;;;5.40;100.00;96139.41;5082280;28;20226;-56
2024/01/02 01:24:01;;;;;;;1.57;1.10;;;;;;;5.45;100.00;96139.06;5081935;28;20828;-56
2024/01/02 01:26:28;;;;;;;2.23;1.03;;;;;;;5.48;98.95;96133.56;5082046;28;20216;-55
2024/01/02 01:28:54;;;;;;;1.60;1.27;;;;;;;5.51;98.54;96131.50;5081997;28;20208;-56
2024/01/02 01:31:22;;;;;;;2.40;1.00;;;;;;;5.46;100.00;96125.81;5082091;28;20214;-55
2024/01/02 01:33:49;;;;;;;1.47;1.00;;;;;;;5.46;100.00;96127.59;5082045;28;20220;-56
2024/01/02 01:36:15;;;;;;;1.50;1.07;;;;;;;5.44;100.00;96129.50;5082191;28;20206;-57
2024/01/02 01:38:43;;;;;;;1.70;1.23;;;;;;;5.42;100.00;96126.19;5081509;28;20194;-55
2024/01/02 01:41:10;;;;;;;1.30;1.20;;;;;;;5.42;100.00;96126.19;5081152;28;20216;-56
2024/01/02 01:43:36;;;;;;;1.60;1.10;;;;;;;5.41;100.00;96124.53;5082336;28;20293;-56
2024/01/02 01:46:03;;;;;;;1.80;1.10;;;;;;;5.41;100.00;96124.53;5082056;28;20285;-57
2024/01/02 01:48:30;;;;;;;1.40;1.00;;;;;;;5.39;100.00;96129.88;5082305;28;20204;-56
2024/01/02 01:50:57;;;;;;;1.60;1.23;;;;;;;5.45;100.00;96134.66;5082263;28;20222;-55
2024/01/02 01:53:24;;;;;;;1.83;1.73;;;;;;;5.42;100.00;96136.69;5080306;28;20210;-53
2024/01/02 01:55:52;;;;;;;1.40;1.30;;;;;;;5.47;98.93;96135.34;5081737;28;20284;-56
2024/01/02 01:58:19;;;;;;;1.33;1.00;;;;;;;5.42;99.48;96142.72;5082393;28;20202;-56
2024/01/02 02:00:45;;;;;;;2.30;1.37;;;;;;;5.43;100.00;96140.94;5081152;28;20213;-56
2024/01/02 02:03:15;;;;;;;1.90;1.30;;;;;;;5.42;100.00;96144.56;5081561;28;20239;-55
2024/01/02 02:05:41;;;;;;;2.33;1.27;;;;;;;5.36;100.00;96137.16;5081552;28;20209;-56
2024/01/02 02:08:08;;;;;;;1.20;1.10;;;;;;;5.33;100.00;96142.66;5081917;28;20297;-57
2024/01/02 02:10:34;;;;;;;1.50;1.40;;;;;;;5.30;100.00;96137.66;5081943;28;20230;-55
2024/01/02 02:13:03;;;;;;;1.13;1.10;;;;;;;5.32;100.00;96140.97;5082282;28;20221;-56
2024/01/02 02:15:29;;;;;;;1.40;1.30;;;;;;;5.21;100.00;96127.94;5085127;28;20301;-55
2024/01/02 02:17:56;;;;;;;1.63;1.20;;;;;;;5.23;100.00;96132.09;5086530;28;20283;-55
2024/01/02 02:20:22;;;;;;;1.07;0.97;;;;;;;5.16;100.00;96125.66;5086058;28;20228;-55
2024/01/02 02:22:51;;;;;;;1.23;1.10;;;;;;;5.14;100.00;96121.47;5086213;28;20312;-56
2024/01/02 02:25:19;;;;;;;1.40;1.30;;;;;;;5.15;100.00;96112.66;5086077;28;20225;-56
2024/01/02 02:27:48;;;;;;;1.40;1.17;;;;;;;5.13;100.00;96098.88;5086408;28;20652;-56
2024/01/02 02:30:15;;;;;;;1.27;1.10;;;;;;;5.16;100.00;96099.44;5085815;28;20232;-55
2024/01/02 02:32:43;;;;;;;1.23;1.07;;;;;;;5.19;100.00;96103.59;5085028;28;20202;-56
2024/01/02 02:35:10;;;;;;;2.57;1.10;;;;;;;5.15;100.00;96095.16;5096208;28;20225;-56
2024/01/02 02:37:37;;;;;;;1.57;1.37;;;;;;;5.21;100.00;96101.72;5099552;28;20248;-56
2024/01/02 02:40:07;;;;;;;2.33;1.20;;;;;;;5.19;100.00;96088.72;5098917;28;20213;-56
2024/01/02 02:42:33;;;;;;;1.13;1.10;;;;;;;5.27;100.00;96091.56;5099288;28;20233;-56
2024/01/02 02:45:01;;;;;;;1.60;1.20;;;;;;;5.40;100.00;96075.66;5093840;28;20332;-57
2024/01/02 02:47:30;;;;;;;0.80;0.80;;;;;;;5.43;100.00;96075.41;5085715;28;20289;-55
2024/01/02 02:49:58;;;;;;;0.90;0.90;;;;;;;5.47;100.00;96084.69;5086609;28;20238;-57
2024/01/02 02:52:26;;;;;;;1.37;0.83;;;;;;;5.57;100.00;96095.25;5090498;28;20199;-56
2024/01/02 02:54:52;;;;;;;1.53;1.10;;;;;;;5.62;98.80;96077.34;5097731;28;20198;-56
2024/01/02 02:57:21;;;;;;;1.13;1.03;;;;;;;5.73;99.04;96072.06;5092320;28;20642;-54
2024/01/02 02:59:48;;;;;;;0.90;0.70;;;;;;;5.89;96.23;96068.03;5087360;28;20282;-55
2024/01/02 03:02:16;;;;;;;0.80;0.80;;;;;;;5.97;96.65;96068.25;5085093;28;20244;-57
2024/01/02 03:04:44;;;;;;;1.87;1.10;;;;;;;5.99;97.17;96060.22;5085240;28;20210;-54
2024/01/02 03:07:11;;;;;;;1.27;0.90;;;;;;;6.19;93.02;96063.81;5084303;28;21366;-55
2024/01/02 03:09:43;;;;;;;1.37;1.10;;;;;;;6.25;91.92;96058.84;5084319;28;20395;-55
2024/01/02 03:12:10;;;;;;;1.20;1.10;;;;;;;6.42;91.39;96062.66;5084921;28;20297;-56
2024/01/02 03:14:38;;;;;;;0.60;0.60;;;;;;;6.45;91.87;96059.75;5085355;28;20419;-55
2024/01/02 03:17:05;;;;;;;2.20;1.10;;;;;;;6.44;92.25;96051.06;5085008;28;20260;-56
2024/01/02 03:19:33;;;;;;;1.83;0.93;;;;;;;6.59;89.84;96051.53;5084284;28;20214;-55
2024/01/02 03:22:00;;;;;;;0.80;0.80;;;;;;;6.60;91.16;96041.84;5084902;28;20190;-55
2024/01/02 03:24:27;;;;;;;0.87;0.77;;;;;;;6.67;90.37;96038.56;5085594;28;20205;-56
2024/01/02 03:26:54;;;;;;;1.73;1.10;;;;;;;6.67;90.46;96032.47;5083043;28;21336;-56
2024/01/02 03:29:22;;;;;;;0.90;0.90;;;;;;;6.70;92.00;96040.91;5084061;28;20650;-56
2024/01/02 03:31:50;;;;;;;2.57;1.37;;;;;;;6.73;89.65;96030.13;5083933;28;20228;-56
2024/01/02 03:34:19;;;;;;;1.33;1.13;;;;;;;6.75;91.06;96033.47;5084322;28;20202;-56
2024/01/02 03:36:46;;;;;;;1.70;0.80;;;;;;;6.80;89.39;96022.56;5083902;28;20202;-56
2024/01/02 03:39:13;;;;;;;1.10;1.00;;;;;;;6.84;90.00;96034.44;5086713;28;20206;-55
2024/01/02 03:41:39;;;;;;;2.33;1.10;;;;;;;6.86;90.46;96020.22;5086601;28;20221;-56
2024/01/02 03:44:06;;;;;;;1.83;1.10;;;;;;;6.87;89.28;96019.22;5088715;28;20269;-56
2024/01/02 03:46:32;;;;;;;1.47;1.17;;;;;;;6.93;89.55;96007.38;5089054;28;20222;-56
2024/01/02 03:49:01;;;;;;;1.50;0.90;;;;;;;6.97;89.65;96012.22;5088151;28;20293;-56
2024/01/02 03:51:27;;;;;;;0.80;0.80;;;;;;;7.04;86.83;96002.00;5092383;28;20290;-55
2024/01/02 03:53:54;;;;;;;1.60;0.90;;;;;;;6.99;89.84;96002.38;5091593;28;20201;-56
2024/01/02 03:56:20;;;;;;;1.10;1.00;;;;;;;6.96;89.75;96004.47;5089079;28;20230;-55
2024/01/02 03:58:47;;;;;;;1.27;0.83;;;;;;;6.91;90.52;95996.97;5090871;28;20317;-58
2024/01/02 04:01:13;;;;;;;1.73;1.03;;;;;;;6.94;89.71;95990.63;5090963;28;20388;-56
2024/01/02 04:03:41;;;;;;;3.00;0.97;;;;;;;6.90;91.76;95987.44;5089413;28;20220;-55
2024/01/02 04:06:09;;;;;;;1.60;1.20;;;;;;;6.91;90.42;95985.63;5092278;28;20213;-56
2024/01/02 04:08:37;;;;;;;1.33;1.10;;;;;;;7.05;88.69;95981.78;5090592;28;20202;-57
2024/01/02 04:11:04;;;;;;;0.70;0.70;;;;;;;7.01;88.09;95979.41;5091379;28;20313;-56
2024/01/02 04:13:31;;;;;;;1.13;1.00;;;;;;;7.00;88.35;95971.69;5094317;28;20206;-54
2024/01/02 04:15:57;;;;;;;0.83;0.80;;;;;;;7.01;88.69;95968.91;5089626;28;20209;-56
2024/01/02 04:18:26;;;;;;;1.57;1.03;;;;;;;7.03;89.30;95965.31;5083503;28;20844;-56
2024/01/02 04:20:53;;;;;;;1.87;0.83;;;;;;;7.12;87.97;95969.75;5083444;28;20209;-56
2024/01/02 04:23:23;;;;;;;1.00;1.00;;;;;;;7.10;86.51;95969.03;5083016;28;20207;-57
2024/01/02 04:25:50;;;;;;;1.53;1.00;;;;;;;7.07;85.52;95959.66;5083480;28;20505;-56
2024/01/02 04:28:16;;;;;;;1.67;1.10;;;;;;;7.12;84.46;95964.50;5082335;28;20622;-56
2024/01/02 04:30:43;;;;;;;1.60;0.77;;;;;;;7.13;85.68;95953.00;5083948;28;20290;-55
2024/01/02 04:33:21;;;;;;;1.07;0.97;;;;;;;7.15;84.53;95945.81;5082929;28;20293;-56
2024/01/02 04:35:48;;;;;;;1.10;0.80;;;;;;;7.15;85.37;95957.16;5083120;28;20194;-55
2024/01/02 04:38:14;;;;;;;0.60;0.60;;;;;;;7.21;86.12;95947.88;5082368;28;20300;-56
2024/01/02 04:40:42;;;;;;;1.00;0.90;;;;;;;7.22;82.61;95939.88;5083466;28;20216;-56
2024/01/02 04:43:09;;;;;;;0.83;0.80;;;;;;;7.21;85.23;95950.50;5082709;28;20202;-56
2024/01/02 04:45:35;;;;;;;0.90;0.90;;;;;;;7.13;86.25;95934.59;5083177;28;20194;-56
2024/01/02 04:48:02;;;;;;;0.80;0.80;;;;;;;7.11;85.81;95932.13;5081971;28;20566;-56
2024/01/02 04:50:29;;;;;;;0.77;0.77;;;;;;;7.00;85.53;95940.97;5083330;28;20297;-56
2024/01/02 04:52:55;;;;;;;0.83;0.83;;;;;;;7.07;86.90;95956.19;5082423;28;20216;-56
2024/01/02 04:55:22;;;;;;;2.03;1.30;;;;;;;7.08;82.29;95940.28;5083312;28;20220;-56
2024/01/02 04:57:50;;;;;;;0.83;0.83;;;;;;;7.13;82.75;95942.47;5082584;28;20228;-55
2024/01/02 05:00:17;;;;;;;0.63;0.63;;;;;;;7.16;83.32;95934.31;5082815;28;20224;-56
2024/01/02 05:02:43;;;;;;;0.90;0.80;;;;;;;7.09;86.81;95922.69;5082172;28;20321;-56
2024/01/02 05:05:10;;;;;;;1.27;1.13;;;;;;;7.14;85.13;95929.22;5083669;28;20269;-55
2024/01/02 05:07:36;;;;;;;1.07;0.67;;;;;;;7.08;85.15;95921.88;5083588;28;20206;-56
2024/01/02 05:10:03;;;;;;;1.40;1.00;;;;;;;7.11;83.60;95908.47;5084570;28;20517;-55
2024/01/02 05:12:31;;;;;;;1.77;0.90;;;;;;;7.10;87.92;95913.84;5084180;28;21455;-56
2024/01/02 05:14:59;;;;;;;0.87;0.70;;;;;;;7.06;86.27;95912.47;5084308;28;20231;-56
2024/01/02 05:17:26;;;;;;;2.40;0.63;;;;;;;7.05;84.96;95916.06;5083061;28;20194;-56
2024/01/02 05:19:52;;;;;;;0.87;0.83;;;;;;;6.98;82.30;95910.50;5083385;28;20198;-57
2024/01/02 05:22:19;;;;;;;1.40;1.00;;;;;;;6.88;83.55;95902.63;5083491;28;20213;-56
2024/01/02 05:24:45;;;;;;;0.80;0.80;;;;;;;6.92;82.96;95896.16;5084061;28;20296;-56
2024/01/02 05:27:12;;;;;;;3.33;3.00;;;;;;;6.93;83.45;95887.31;5083789;28;20197;-56
2024/01/02 05:29:42;;;;;;;1.33;0.93;;;;;;;6.99;83.41;95881.47;5083463;28;20202;-54
2024/01/02 05:32:10;;;;;;;1.43;0.97;;;;;;;6.98;85.93;95887.69;5080964;28;20230;-56
2024/01/02 05:34:37;;;;;;;2.53;0.80;;;;;;;6.94;85.06;95886.31;5082303;28;20377;-56
2024/01/02 05:37:04;;;;;;;1.30;1.20;;;;;;;6.97;83.30;95893.94;5082160;28;20204;-55
2024/01/02 05:39:30;;;;;;;1.07;0.70;;;;;;;6.91;83.82;95883.13;5082502;28;20228;-56
2024/01/02 05:41:57;;;;;;;0.80;0.80;;;;;;;6.94;83.86;95886.31;5082162;28;20271;-55
2024/01/02 05:44:24;;;;;;;1.00;0.90;;;;;;;6.96;85.06;95892.28;5080222;28;20297;-55
2024/01/02 05:46:51;;;;;;;0.87;0.83;;;;;;;6.97;84.38;95888.69;5082256;28;20249;-56
2024/01/02 05:49:19;;;;;;;0.87;0.80;;;;;;;7.00;83.67;95898.91;5083879;28;20315;-56
2024/01/02 05:51:45;;;;;;;0.80;0.77;;;;;;;7.14;82.77;95887.13;5085974;28;20674;-56
2024/01/02 05:54:12;;;;;;;0.80;0.80;;;;;;;7.09;84.08;95891.97;5086418;28;20275;-56
2024/01/02 05:56:38;;;;;;;1.47;0.80;;;;;;;7.00;84.75;95888.41;5086158;28;20209;-56
2024/01/02 05:59:05;;;;;;;0.80;0.80;;;;;;;7.06;84.74;95894.06;5085417;28;20199;-57
2024/01/02 06:01:34;;;;;;;1.47;0.70;;;;;;;7.32;83.47;95903.03;5084721;28;20307;-56
2024/01/02 06:04:01;;;;;;;2.90;1.00;;;;;;;7.18;85.85;95891.16;5085443;28;20718;-56
2024/01/02 06:06:28;;;;;;;0.60;0.60;;;;;;;7.20;86.55;95894.44;5086088;28;20220;-56
2024/01/02 06:08:55;;;;;;;0.80;0.80;;;;;;;7.24;84.83;95895.84;5085837;28;20212;-57
2024/01/02 06:11:22;;;;;;;1.30;1.20;;;;;;;7.22;84.65;95894.31;5086160;28;20213;-56
2024/01/02 06:13:48;;;;;;;1.80;0.80;;;;;;;7.23;84.23;95902.06;5085543;28;20290;-56
2024/01/02 06:16:15;;;;;;;0.60;0.60;;;;;;;7.15;85.46;95903.75;5086858;28;20202;-56
2024/01/02 06:18:41;;;;;;;1.40;0.80;;;;;;;7.18;85.84;95909.56;5085436;28;20213;-56
2024/01/02 06:21:08;;;;;;;1.40;0.87;;;;;;;7.23;86.61;95901.22;5086013;28;20199;-57
2024/01/02 06:23:36;;;;;;;1.27;0.80;;;;;;;7.10;87.05;95898.91;5085156;28;20199;-56
2024/01/02 06:26:04;;;;;;;0.80;0.80;;;;;;;7.14;87.45;95897.66;5085836;28;20201;-56
2024/01/02 06:28:31;;;;;;;1.40;0.70;;;;;;;7.18;90.37;95892.94;5083914;28;20263;-56
2024/01/02 06:30:57;;;;;;;0.50;0.50;;;;;;;7.26;91.37;95891.25;5085879;28;20205;-57
2024/01/02 06:33:25;;;;;;;0.80;0.77;;;;;;;7.35;92.11;95893.06;5086035;28;20217;-57
2024/01/02 06:35:52;;;;;;;1.70;0.77;;;;;;;7.31;93.44;95901.34;5100243;28;20542;-55
2024/01/02 06:38:18;;;;;;;0.77;0.77;;;;;;;7.40;93.58;95916.31;5095368;28;20275;-56
2024/01/02 06:40:46;;;;;;;0.70;0.60;;;;;;;7.38;94.16;95905.09;5090648;28;20577;-56
2024/01/02 06:43:14;;;;;;;3.07;0.70;;;;;;;7.39;95.20;95904.97;5091457;28;20198;-56
2024/01/02 06:45:41;;;;;;;0.60;0.57;;;;;;;7.43;95.62;95881.81;5091702;28;20206;-57
2024/01/02 06:48:08;;;;;;;0.50;0.50;;;;;;;7.48;96.84;95882.22;5085516;28;20202;-56
2024/01/02 06:50:35;;;;;;;1.13;0.70;;;;;;;7.39;96.75;95877.81;5084929;28;20583;-56
2024/01/02 06:53:02;;;;;;;1.20;0.80;;;;;;;7.43;96.60;95879.19;5085466;28;20225;-56
2024/01/02 06:55:28;;;;;;;0.50;0.50;;;;;;;7.35;98.16;95879.06;5085503;28;20226;-56
2024/01/02 06:57:56;;;;;;;0.70;0.70;;;;;;;7.39;97.96;95883.91;5084951;28;20201;-56
2024/01/02 07:00:23;;;;;;;0.67;0.67;;;;;;;7.39;97.24;95880.44;5083905;28;20194;-56
2024/01/02 07:02:51;;;;;;;0.87;0.70;;;;;;;7.41;97.95;95881.13;5084578;28;20241;-56
2024/01/02 07:05:18;;;;;;;0.60;0.60;;;;;;;7.35;98.35;95887.78;5084166;28;20217;-56
2024/01/02 07:07:44;;;;;;;1.23;0.60;;;;;;;7.42;98.51;95888.06;5084774;28;20198;-56
2024/01/02 07:10:10;;;;;;;2.10;1.03;;;;;;;7.39;98.74;95886.53;5084674;28;20293;-55
2024/01/02 07:12:37;;;;;;;0.90;0.90;;;;;;;7.23;100.00;95874.94;5085646;28;20313;-56
2024/01/02 07:15:06;;;;;;;0.90;0.90;;;;;;;7.31;100.00;95891.66;5087254;28;20201;-55
2024/01/02 07:17:33;;;;;;;0.73;0.73;;;;;;;7.41;100.00;95887.22;5086023;28;20226;-55
2024/01/02 07:20:00;;;;;;;2.03;0.87;;;;;;;7.31;100.00;95883.78;5083709;28;20653;-56
2024/01/02 07:22:27;;;;;;;1.57;0.90;;;;;;;7.18;100.00;95891.16;5084774;28;20274;-55
2024/01/02 07:24:54;;;;;;;0.83;0.83;;;;;;;7.31;100.00;95898.72;5084151;28;20227;-55
2024/01/02 07:27:21;;;;;;;0.60;0.60;;;;;;;7.35;100.00;95898.31;5083553;28;20316;-56
2024/01/02 07:29:47;;;;;;;0.50;0.50;;;;;;;7.35;100.00;95889.59;5084178;28;20298;-55
2024/01/02 07:32:15;;;;;;;1.50;0.70;;;;;;;7.28;100.00;95897.22;5084467;28;20534;-55
2024/01/02 07:34:42;;;;;;;0.70;0.70;;;;;;;7.27;100.00;95894.72;5084443;28;20631;-55
2024/01/02 07:37:10;;;;;;;1.00;0.70;;;;;;;7.23;100.00;95890.69;5084649;28;20231;-55
2024/01/02 07:39:37;;;;;;;1.33;0.90;;;;;;;7.10;100.00;95903.31;5083842;28;20214;-56
2024/01/02 07:42:04;;;;;;;1.50;1.40;;;;;;;7.15;100.00;95901.13;5084559;28;20527;-56
2024/01/02 07:44:31;;;;;;;0.93;0.70;;;;;;;7.19;100.00;95903.31;5084201;28;20233;-56
2024/01/02 07:46:58;;;;;;;0.40;0.40;;;;;;;7.23;100.00;95911.75;5084654;28;20206;-56
2024/01/02 07:49:28;;;;;;;0.60;0.60;;;;;;;7.30;100.00;95912.84;5084012;28;20635;-56
2024/01/02 07:51:55;;;;;;;0.63;0.63;;;;;;;7.32;100.00;95900.41;5084201;28;20226;-56
2024/01/02 07:54:22;;;;;;;0.93;0.77;;;;;;;7.33;100.00;95909.97;5083359;28;20631;-56
2024/01/02 07:56:49;;;;;;;0.80;0.80;;;;;;;7.23;100.00;95893.34;5084595;28;20293;-56
2024/01/02 07:59:19;;;;;;;1.37;0.80;;;;;;;7.20;100.00;95899.72;5083003;28;20194;-57
2024/01/02 08:01:46;;;;;;;0.87;0.80;;;;;;;7.23;100.00;95893.34;5083986;28;20259;-56
2024/01/02 08:04:13;;;;;;;1.07;0.70;;;;;;;7.30;100.00;95900.53;5083690;28;20202;-56
2024/01/02 08:06:41;;;;;;;1.43;0.60;;;;;;;7.34;100.00;95916.84;5084078;28;20210;-56
2024/01/02 08:09:10;;;;;;;0.80;0.70;;;;;;;7.32;100.00;95908.28;5083994;28;20209;-57
2024/01/02 08:11:37;;;;;;;1.67;0.70;;;;;;;7.31;100.00;95898.72;5082753;28;20741;-56
2024/01/02 08:14:03;;;;;;;1.10;0.83;;;;;;;7.16;100.00;95892.25;5083475;28;20202;-57
2024/01/02 08:16:32;;;;;;;1.40;0.60;;;;;;;7.17;100.00;95897.38;5084995;28;20217;-56
2024/01/02 08:18:58;;;;;;;0.47;0.40;;;;;;;7.16;100.00;95892.25;5084378;28;20635;-56
2024/01/02 08:21:26;;;;;;;2.93;0.80;;;;;;;7.08;100.00;95886.88;5083448;28;20729;-57
2024/01/02 08:23:54;;;;;;;0.50;0.50;;;;;;;7.11;100.00;95892.69;5084552;28;20227;-56
2024/01/02 08:26:23;;;;;;;0.60;0.60;;;;;;;7.16;100.00;95892.25;5084478;28;20237;-55
2024/01/02 08:28:53;;;;;;;1.03;0.67;;;;;;;7.17;100.00;95902.63;5084340;28;20293;-56
2024/01/02 08:31:20;;;;;;;2.43;1.03;;;;;;;7.20;100.00;95899.72;5083190;28;20209;-56
2024/01/02 08:33:46;;;;;;;0.73;0.70;;;;;;;7.29;100.00;95903.31;5083662;28;20582;-56
2024/01/02 08:36:13;;;;;;;0.60;0.60;;;;;;;7.34;100.00;95899.28;5083543;28;20205;-56
2024/01/02 08:38:40;;;;;;;0.50;0.50;;;;;;;7.28;100.00;95901.66;5084110;28;20221;-56
2024/01/02 08:41:11;;;;;;;0.57;0.57;;;;;;;7.27;100.00;95895.56;5087046;28;20285;-56
2024/01/02 08:43:37;;;;;;;0.60;0.60;;;;;;;7.26;100.00;95893.06;5085832;28;20284;-56
2024/01/02 08:46:04;;;;;;;0.63;0.57;;;;;;;7.29;100.00;95890.16;5087689;28;20286;-56
2024/01/02 08:48:31;;;;;;;0.47;0.47;;;;;;;7.33;100.00;95887.09;5087800;28;20237;-56
2024/01/02 08:50:58;;;;;;;0.40;0.40;;;;;;;7.38;100.00;95907.72;5083732;28;20216;-56
2024/01/02 08:53:25;;;;;;;0.67;0.67;;;;;;;7.37;100.00;95900.78;5083538;28;20222;-56
2024/01/02 08:55:53;;;;;;;0.60;0.60;;;;;;;7.36;100.00;95902.63;5083764;28;20289;-55
2024/01/02 08:58:22;;;;;;;0.67;0.67;;;;;;;7.46;100.00;95905.22;5083235;28;20198;-55
2024/01/02 09:00:50;;;;;;;0.60;0.60;;;;;;;7.53;100.00;95908.94;5083790;28;20210;-57
2024/01/02 09:03:17;;;;;;;0.57;0.57;;;;;;;7.57;100.00;95901.59;5083700;28;20253;-55
2024/01/02 09:05:45;;;;;;;1.13;0.70;;;;;;;7.62;100.00;95921.22;5084221;28;20606;-57
2024/01/02 09:08:13;;;;;;;1.80;0.67;;;;;;;7.60;100.00;95906.56;5083824;28;20236;-55
2024/01/02 09:10:40;;;;;;;2.47;0.77;;;;;;;7.59;100.00;95905.72;5083870;28;20205;-57
2024/01/02 09:13:07;;;;;;;0.60;0.50;;;;;;;7.62;100.00;95902.81;5084556;28;20217;-56
2024/01/02 09:15:36;;;;;;;0.60;0.50;;;;;;;7.63;100.00;95912.38;5083626;28;20285;-56
2024/01/02 09:18:04;;;;;;;0.80;0.77;;;;;;;7.67;100.00;95921.63;5084148;28;20194;-56
2024/01/02 09:20:30;;;;;;;0.60;0.60;;;;;;;7.75;100.00;95920.94;5092539;28;20207;-57
2024/01/02 09:22:57;;;;;;;0.47;0.47;;;;;;;7.71;100.00;95914.28;5099633;28;20204;-55
2024/01/02 09:25:27;;;;;;;0.30;0.30;;;;;;;7.73;100.00;95928.13;5096435;28;20245;-56
2024/01/02 09:27:56;;;;;;;0.70;0.70;;;;;;;7.77;100.00;95927.69;5084631;28;20234;-56
2024/01/02 09:30:23;;;;;;;0.40;0.40;;;;;;;7.82;100.00;95936.00;5083908;28;20218;-56
2024/01/02 09:32:51;;;;;;;0.37;0.37;;;;;;;7.93;100.00;95924.47;5082889;28;20237;-56
2024/01/02 09:35:18;;;;;;;2.87;0.40;;;;;;;7.85;100.00;95916.44;5083852;28;20304;-56
2024/01/02 09:37:45;;;;;;;0.40;0.40;;;;;;;7.90;100.00;95911.59;5083352;28;20206;-55
2024/01/02 09:40:18;;;;;;;0.60;0.60;;;;;;;7.87;100.00;95920.59;5083128;28;20229;-55
2024/01/02 09:42:51;;;;;;;0.40;0.40;;;;;;;7.92;100.00;95921.00;5082890;28;20635;-55
2024/01/02 09:45:24;;;;;;;0.50;0.50;;;;;;;7.90;100.00;95917.66;5082939;28;20201;-56
2024/01/02 09:48:06;;;;;;;0.60;0.50;;;;;;;7.95;100.00;95917.25;5082463;28;20194;-56
2024/01/02 09:50:38;;;;;;;0.53;0.40;;;;;;;8.05;100.00;95906.66;5083365;28;20216;-56
2024/01/02 09:53:31;;;;;;;0.50;0.50;;;;;;;8.07;100.00;95915.25;5083900;28;20213;-56
2024/01/02 09:56:04;;;;;;;0.30;0.30;;;;;;;8.11;100.00;95903.47;5083326;28;20206;-55
2024/01/02 09:58:37;;;;;;;0.83;0.30;;;;;;;8.17;100.00;95889.72;5082870;28;20202;-57
2024/01/02 10:01:09;;;;;;;0.30;0.30;;;;;;;8.17;100.00;95894.97;5083090;28;20282;-56
2024/01/02 10:03:56;;;;;;;0.93;0.40;;;;;;;8.25;100.00;95892.44;5082572;28;20294;-56
2024/01/02 10:06:34;;;;;;;0.40;0.40;;;;;;;8.31;100.00;95870.81;5082306;28;20202;-56
2024/01/02 10:09:15;;;;;;;1.63;1.10;;;;;;;8.31;100.00;95878.72;5081883;28;20737;-55
2024/01/02 10:12:00;;;;;;;2.20;2.00;;;;;;;8.37;100.00;95888.66;5082570;28;20312;-55
2024/01/02 10:14:28;;;;;;;3.20;0.50;;;;;;;8.57;100.00;95877.03;5081651;28;20558;-55
2024/01/02 10:17:06;;;;;;;2.03;1.63;;;;;;;8.62;100.00;95880.03;5082979;28;20303;-54
2024/01/02 10:19:43;;;;;;;0.50;0.50;;;;;;;8.60;100.00;95876.72;5081941;28;20202;-56
2024/01/02 10:22:14;;;;;;;0.77;0.70;;;;;;;8.62;100.00;95864.22;5081620;28;20289;-55
2024/01/02 10:24:51;;;;;;;0.90;0.70;;;;;;;8.71;100.00;95863.34;5082010;28;20194;-55
2024/01/02 10:27:26;;;;;;;0.80;0.70;;;;;;;8.81;100.00;95852.69;5080628;28;20217;-56
2024/01/02 10:30:02;;;;;;;0.77;0.57;;;;;;;8.81;100.00;95858.81;5080869;28;20282;-55
2024/01/02 10:32:37;;;;;;;0.60;0.60;;;;;;;8.88;100.00;95846.69;5082091;28;20543;-57
2024/01/02 10:35:11;;;;;;;0.73;0.53;;;;;;;8.95;100.00;95847.72;5083252;28;20194;-56
2024/01/02 10:37:41;;;;;;;0.40;0.40;;;;;;;9.08;100.00;95847.31;5085554;28;20209;-56
2024/01/02 10:40:09;;;;;;;1.63;0.60;;;;;;;9.09;100.00;95837.59;5086232;28;20218;-56
2024/01/02 10:42:45;;;;;;;0.30;0.30;;;;;;;9.10;100.00;95840.09;5085674;28;20206;-56
2024/01/02 10:45:18;;;;;;;0.50;0.50;;;;;;;9.00;100.00;95837.53;5085642;28;20216;-55
2024/01/02 10:47:58;;;;;;;0.50;0.40;;;;;;;9.11;100.00;95822.44;5085613;28;20627;-55
2024/01/02 10:50:34;;;;;;;0.60;0.60;;;;;;;9.07;100.00;95806.09;5086283;28;20202;-56
2024/01/02 10:53:09;;;;;;;0.50;0.50;;;;;;;9.10;100.00;95812.88;5085520;28;20523;-56
2024/01/02 10:55:41;;;;;;;0.47;0.47;;;;;;;9.12;100.00;95808.28;5085807;28;20206;-56
2024/01/02 10:58:21;;;;;;;0.43;0.43;;;;;;;9.10;100.00;95804.97;5086016;28;20297;-56
2024/01/02 11:00:53;;;;;;;0.50;0.50;;;;;;;8.96;100.00;95796.63;5088688;28;20191;-56
2024/01/02 11:03:20;;;;;;;0.47;0.47;;;;;;;8.96;100.00;95793.19;5092927;28;20325;-56
2024/01/02 11:05:53;;;;;;;0.30;0.30;;;;;;;8.98;100.00;95791.22;5094179;28;20550;-56
2024/01/02 11:08:23;;;;;;;0.40;0.40;;;;;;;9.05;100.00;95786.97;5094716;28;20285;-55
2024/01/02 11:10:54;;;;;;;0.70;0.50;;;;;;;8.90;100.00;95781.44;5089927;28;20707;-56
2024/01/02 11:13:21;;;;;;;0.83;0.57;;;;;;;8.88;100.00;95785.22;5085853;28;20283;-55
2024/01/02 11:15:51;;;;;;;0.50;0.50;;;;;;;8.86;100.00;95774.81;5084392;28;20208;-55
2024/01/02 11:18:18;;;;;;;0.43;0.43;;;;;;;8.84;100.00;95762.75;5085758;28;20237;-55
2024/01/02 11:20:52;;;;;;;0.50;0.50;;;;;;;8.81;100.00;95766.53;5085829;28;20198;-55
2024/01/02 11:23:21;;;;;;;0.53;0.50;;;;;;;8.78;100.00;95758.94;5085049;28;20205;-56
2024/01/02 11:25:54;;;;;;;0.30;0.30;;;;;;;8.75;100.00;95748.69;5085323;28;20197;-55
2024/01/02 11:28:21;;;;;;;1.10;0.63;;;;;;;8.77;100.00;95732.72;5084973;28;20234;-55
2024/01/02 11:30:48;;;;;;;0.43;0.43;;;;;;;8.72;100.00;95733.19;5092139;28;20266;-55
2024/01/02 11:33:25;;;;;;;0.30;0.30;;;;;;;8.80;100.00;95720.06;5099132;28;20253;-62
2024/01/02 11:36:08;;;;;;;0.47;0.47;;;;;;;8.76;100.00;95712.63;5091449;28;20570;-56
2024/01/02 11:38:40;;;;;;;0.73;0.60;;;;;;;8.75;100.00;95709.16;5085143;28;20210;-56
2024/01/02 11:41:15;;;;;;;0.33;0.33;;;;;;;8.83;100.00;95698.66;5085168;28;20194;-54